Time;durP1;ratioP1;P1;durP2;ratioP2;P2;SDS_P1;SDS_P2;PMS_P1;PMS_P2;Temp;Humidity;BMP_temperature;BMP_pressure;BME280_temperature;BME280_humidity;BME280_pressure;Samples;Min_cycle;Max_cycle;Signal;HPM_P1;HPM_P2
2023/01/13 00:00:20;;;;;;;6.87;5.20;;;;;;;3.11;100.00;94779.91;5091858;28;20649;-54
2023/01/13 00:02:45;;;;;;;4.80;3.80;;;;;;;3.14;100.00;94782.25;5091620;28;20193;-54
2023/01/13 00:05:11;;;;;;;5.80;4.20;;;;;;;3.22;100.00;94779.31;5091823;28;20211;-55
2023/01/13 00:07:38;;;;;;;7.40;4.73;;;;;;;3.05;100.00;94779.44;5091339;28;20196;-56
2023/01/13 00:10:09;;;;;;;6.33;4.27;;;;;;;3.03;100.00;94784.53;5071660;28;20205;-55
2023/01/13 00:12:37;;;;;;;6.23;3.97;;;;;;;3.08;100.00;94789.31;5073522;28;20267;-57
2023/01/13 00:15:02;;;;;;;6.97;4.40;;;;;;;3.08;100.00;94784.28;5091892;28;20203;-57
2023/01/13 00:17:28;;;;;;;6.77;4.37;;;;;;;3.14;100.00;94784.78;5091518;28;20195;-54
2023/01/13 00:19:55;;;;;;;7.97;5.20;;;;;;;3.20;100.00;94786.94;5091866;28;20239;-57
2023/01/13 00:22:20;;;;;;;6.97;5.20;;;;;;;3.16;100.00;94792.22;5091294;28;20211;-56
2023/01/13 00:24:46;;;;;;;7.87;4.43;;;;;;;3.12;100.00;94780.72;5091491;28;20213;-54
2023/01/13 00:27:11;;;;;;;8.17;5.00;;;;;;;3.22;100.00;94792.69;5091437;28;20199;-54
2023/01/13 00:29:36;;;;;;;8.33;5.33;;;;;;;3.23;100.00;94785.97;5090684;28;20211;-57
2023/01/13 00:32:02;;;;;;;6.53;4.90;;;;;;;3.29;100.00;94775.59;5091473;28;20200;-55
2023/01/13 00:34:28;;;;;;;7.53;4.53;;;;;;;3.31;100.00;94794.69;5090107;28;20216;-54
2023/01/13 00:36:53;;;;;;;6.20;4.83;;;;;;;3.18;100.00;94791.25;5089641;28;20270;-56
2023/01/13 00:39:26;;;;;;;8.07;5.07;;;;;;;3.04;100.00;94776.09;5070524;28;20256;-57
2023/01/13 00:44:35;;;;;;;6.00;4.40;;;;;;;3.22;100.00;94787.69;5070572;28;20301;-54
2023/01/13 00:47:00;;;;;;;6.50;4.60;;;;;;;3.17;100.00;94771.25;5070775;28;20213;-57
2023/01/13 00:49:26;;;;;;;7.33;5.17;;;;;;;3.25;100.00;94779.97;5070591;28;20227;-54
2023/01/13 00:51:51;;;;;;;6.43;4.67;;;;;;;3.26;100.00;94786.63;5070545;28;20346;-53
2023/01/13 00:54:17;;;;;;;7.27;5.60;;;;;;;3.30;100.00;94782.22;5069907;28;20235;-54
2023/01/13 00:56:43;;;;;;;7.77;5.27;;;;;;;3.32;100.00;94786.28;5069356;28;20197;-54
2023/01/13 00:59:12;;;;;;;6.10;4.47;;;;;;;3.42;100.00;94786.56;5070356;28;20322;-57
2023/01/13 01:01:38;;;;;;;8.20;5.63;;;;;;;3.50;100.00;94786.16;5070138;28;20321;-55
2023/01/13 01:04:04;;;;;;;8.33;5.23;;;;;;;3.38;100.00;94785.94;5069212;28;20233;-56
2023/01/13 01:06:29;;;;;;;8.27;5.37;;;;;;;3.32;100.00;94775.41;5070016;28;20181;-54
2023/01/13 01:08:55;;;;;;;7.33;5.20;;;;;;;3.26;100.00;94779.09;5069842;28;20241;-54
2023/01/13 01:11:29;;;;;;;8.33;5.23;;;;;;;3.24;100.00;94767.50;5069353;28;20575;-57
2023/01/13 01:13:56;;;;;;;10.37;5.63;;;;;;;3.29;100.00;94766.34;5068310;28;20182;-54
2023/01/13 01:16:23;;;;;;;7.13;4.93;;;;;;;3.18;100.00;94756.09;5068923;28;20194;-55
2023/01/13 01:18:50;;;;;;;8.50;5.33;;;;;;;3.23;100.00;94770.91;5069266;28;20205;-56
2023/01/13 01:21:17;;;;;;;7.37;4.80;;;;;;;3.15;100.00;94765.50;5069984;28;20213;-52
2023/01/13 01:23:43;;;;;;;8.13;4.93;;;;;;;3.20;100.00;94766.03;5051742;28;20197;-55
2023/01/13 01:26:14;;;;;;;7.03;4.90;;;;;;;3.16;100.00;94769.59;5070175;28;20697;-54
2023/01/13 01:28:41;;;;;;;7.73;5.20;;;;;;;3.22;100.00;94767.59;5070294;28;20203;-57
2023/01/13 01:31:09;;;;;;;7.30;4.87;;;;;;;3.18;100.00;94768.66;5070469;28;20773;-56
2023/01/13 01:33:34;;;;;;;8.00;5.07;;;;;;;3.12;100.00;94753.91;5070220;28;20194;-56
2023/01/13 01:36:19;;;;;;;7.70;5.13;;;;;;;3.22;100.00;94764.25;5070347;28;20604;-53
2023/01/13 01:38:45;;;;;;;6.23;4.30;;;;;;;3.18;100.00;94758.59;5069466;28;20217;-53
2023/01/13 01:41:18;;;;;;;7.00;5.07;;;;;;;2.79;100.00;94692.19;5069293;28;20215;-56
2023/01/13 01:44:02;;;;;;;7.90;4.67;;;;;;;3.10;100.00;94755.69;5072055;28;20255;-57
2023/01/13 01:46:30;;;;;;;5.97;4.70;;;;;;;3.12;100.00;94753.09;5072592;28;20205;-55
2023/01/13 01:49:06;;;;;;;6.03;4.43;;;;;;;3.03;100.00;94738.53;5071316;28;20276;-56
2023/01/13 01:51:37;;;;;;;8.67;5.20;;;;;;;3.08;100.00;94744.09;5071377;28;20203;-56
2023/01/13 01:54:07;;;;;;;6.87;5.07;;;;;;;2.94;100.00;94734.00;5071114;28;20275;-54
2023/01/13 01:56:33;;;;;;;6.73;4.83;;;;;;;3.07;100.00;94737.47;5071632;28;20196;-56
2023/01/13 01:58:59;;;;;;;5.97;4.37;;;;;;;3.06;100.00;94749.22;5072984;28;20213;-54
2023/01/13 02:01:24;;;;;;;5.73;4.07;;;;;;;3.02;100.00;94750.28;5073287;28;20568;-57
2023/01/13 02:04:03;;;;;;;7.77;4.80;;;;;;;3.06;100.00;94749.22;5072157;28;20188;-54
2023/01/13 02:06:29;;;;;;;7.70;5.17;;;;;;;3.08;100.00;94749.13;5054681;28;20234;-55
2023/01/13 02:08:57;;;;;;;7.67;5.33;;;;;;;3.00;100.00;94729.47;5072856;28;20188;-54
2023/01/13 02:14:15;;;;;;;9.63;5.23;;;;;;;3.01;100.00;94745.34;5072832;28;20203;-54
2023/01/13 02:16:52;;;;;;;5.37;4.17;;;;;;;3.01;100.00;94750.38;5072607;28;20598;-55
2023/01/13 02:19:36;;;;;;;6.73;4.67;;;;;;;3.07;100.00;94745.81;5072428;28;20224;-57
2023/01/13 02:22:10;;;;;;;5.67;4.23;;;;;;;3.07;100.00;94745.00;5072507;28;20219;-54
2023/01/13 02:25:09;;;;;;;8.73;5.00;;;;;;;2.99;100.00;94737.09;5072750;28;20219;-57
2023/01/13 02:27:58;;;;;;;7.53;4.60;;;;;;;3.03;100.00;94736.03;5073225;28;20309;-54
2023/01/13 02:33:48;;;;;;;7.77;4.90;;;;;;;2.98;100.00;94741.28;5080752;22;20255;-56
2023/01/13 02:36:29;;;;;;;7.20;4.60;;;;;;;2.98;100.00;94742.97;5072662;28;20220;-54
2023/01/13 02:39:07;;;;;;;6.47;4.53;;;;;;;2.98;100.00;94738.78;5072781;28;20273;-56
2023/01/13 02:44:30;;;;;;;8.10;4.87;;;;;;;3.01;100.00;94738.59;5072866;28;20250;-55
2023/01/13 02:47:14;;;;;;;5.73;4.37;;;;;;;3.01;100.00;94741.09;5071740;28;20280;-57
2023/01/13 02:49:44;;;;;;;6.37;4.40;;;;;;;3.05;100.00;94749.31;5072958;28;20223;-56
2023/01/13 02:52:15;;;;;;;6.63;4.90;;;;;;;3.02;100.00;94747.75;5054295;28;20192;-55
2023/01/13 02:54:48;;;;;;;5.20;4.40;;;;;;;3.00;100.00;94731.16;5072643;28;20216;-58
2023/01/13 02:57:18;;;;;;;6.93;4.83;;;;;;;3.07;100.00;94735.75;5072516;28;20674;-56
2023/01/13 02:59:44;;;;;;;14.60;8.63;;;;;;;3.08;100.00;94746.63;5072438;28;20686;-56
2023/01/13 03:02:14;;;;;;;5.57;4.47;;;;;;;3.13;100.00;94755.50;5072434;28;20229;-53
2023/01/13 03:04:56;;;;;;;7.50;4.80;;;;;;;3.24;100.00;94745.69;5072394;28;20289;-55
2023/01/13 03:07:35;;;;;;;6.93;4.93;;;;;;;3.37;100.00;94753.38;5072229;28;20197;-54
2023/01/13 03:10:26;;;;;;;7.43;5.10;;;;;;;3.21;100.00;94758.41;5072754;28;20216;-53
2023/01/13 03:12:55;;;;;;;6.53;5.03;;;;;;;3.17;100.00;94754.44;5071995;28;20231;-57
2023/01/13 03:15:45;;;;;;;6.40;4.83;;;;;;;3.21;100.00;94733.28;5072086;28;20300;-55
2023/01/13 03:18:17;;;;;;;5.33;4.27;;;;;;;3.25;100.00;94752.34;5072213;28;20212;-56
2023/01/13 03:20:56;;;;;;;5.70;4.37;;;;;;;3.26;100.00;94740.59;5072330;28;20212;-54
2023/01/13 03:23:36;;;;;;;7.10;4.87;;;;;;;3.24;100.00;94745.69;5072179;28;20192;-57
2023/01/13 03:26:19;;;;;;;5.83;4.57;;;;;;;3.13;100.00;94732.91;5072006;28;20212;-56
2023/01/13 03:28:51;;;;;;;7.73;4.93;;;;;;;3.42;100.00;94753.91;5072564;28;20271;-53
2023/01/13 03:31:24;;;;;;;6.80;4.20;;;;;;;3.41;100.00;94759.84;5071869;28;20237;-54
2023/01/13 03:33:58;;;;;;;9.20;5.70;;;;;;;3.25;100.00;94746.53;5072146;28;20222;-57
2023/01/13 03:36:27;;;;;;;7.27;4.87;;;;;;;3.43;100.00;94761.38;5072168;28;20191;-57
2023/01/13 03:39:01;;;;;;;7.53;5.27;;;;;;;3.40;100.00;94768.28;5071993;28;20696;-59
2023/01/13 03:41:34;;;;;;;6.03;4.07;;;;;;;3.18;100.00;94743.53;5072151;28;20273;-55
2023/01/13 03:44:21;;;;;;;5.53;4.50;;;;;;;3.37;100.00;94764.22;5071790;28;20206;-56
2023/01/13 03:47:16;;;;;;;5.90;3.93;;;;;;;3.39;100.00;94764.94;5071737;28;20681;-55
2023/01/13 03:50:18;;;;;;;7.00;4.60;;;;;;;3.34;100.00;94753.53;5071700;28;20685;-55
2023/01/13 03:52:47;;;;;;;6.57;4.73;;;;;;;3.39;100.00;94761.63;5071718;28;20192;-56
2023/01/13 03:55:32;;;;;;;7.27;4.87;;;;;;;3.41;100.00;94768.19;5071744;28;20217;-55
2023/01/13 03:58:28;;;;;;;5.87;4.67;;;;;;;3.40;100.00;94761.53;5071512;28;20201;-54
2023/01/13 04:01:11;;;;;;;6.07;4.43;;;;;;;3.42;100.00;94767.28;5066182;28;20223;-54
2023/01/13 04:04:01;;;;;;;6.63;4.80;;;;;;;3.28;100.00;94742.13;5069230;28;20201;-55
2023/01/13 04:06:39;;;;;;;4.93;4.03;;;;;;;3.37;100.00;94764.22;5056584;28;20256;-54
2023/01/13 04:09:23;;;;;;;5.73;4.20;;;;;;;3.44;100.00;94762.19;5070903;28;20200;-55
2023/01/13 04:11:57;;;;;;;5.57;3.90;;;;;;;3.33;100.00;94761.97;5070625;28;20272;-55
2023/01/13 04:14:24;;;;;;;6.03;4.30;;;;;;;3.32;100.00;94745.28;5070834;28;20212;-57
2023/01/13 04:16:50;;;;;;;5.17;4.30;;;;;;;3.48;100.00;94768.66;5052996;28;20726;-53
2023/01/13 04:19:17;;;;;;;5.40;3.80;;;;;;;3.35;100.00;94762.69;5071307;28;20230;-55
2023/01/13 04:21:43;;;;;;;5.43;4.10;;;;;;;3.35;100.00;94770.25;5053492;28;20224;-56
2023/01/13 04:24:08;;;;;;;6.73;4.00;;;;;;;3.38;100.00;94768.34;5070770;28;20689;-57
2023/01/13 04:26:34;;;;;;;6.30;4.70;;;;;;;3.43;100.00;94780.69;5070778;28;20206;-54
2023/01/13 04:28:59;;;;;;;6.20;4.30;;;;;;;3.45;100.00;94778.88;5070815;28;20217;-53
2023/01/13 04:31:25;;;;;;;8.37;4.43;;;;;;;3.34;100.00;94779.47;5070170;28;20183;-54
2023/01/13 04:33:50;;;;;;;5.53;4.20;;;;;;;3.31;100.00;94761.25;5070419;28;20244;-54
2023/01/13 04:36:15;;;;;;;6.27;4.43;;;;;;;3.38;100.00;94770.06;5070560;28;20201;-54
2023/01/13 04:38:41;;;;;;;5.00;4.27;;;;;;;3.34;100.00;94764.41;5071026;28;20225;-56
2023/01/13 04:41:06;;;;;;;5.30;4.00;;;;;;;3.48;100.00;94780.41;5070242;28;20277;-57
2023/01/13 04:43:32;;;;;;;8.10;4.10;;;;;;;3.56;100.00;94783.28;5052806;28;20201;-53
2023/01/13 04:45:57;;;;;;;4.43;3.50;;;;;;;3.56;100.00;94789.13;5052753;28;20290;-54
2023/01/13 04:48:23;;;;;;;5.20;3.77;;;;;;;3.57;100.00;94789.97;5070947;28;20193;-56
2023/01/13 04:50:48;;;;;;;6.00;4.27;;;;;;;3.47;100.00;94782.13;5071132;28;20808;-55
2023/01/13 04:53:13;;;;;;;5.07;3.70;;;;;;;3.37;100.00;94768.44;5070796;28;20193;-55
2023/01/13 04:55:39;;;;;;;4.03;3.50;;;;;;;3.55;100.00;94786.72;5070557;28;20679;-56
2023/01/13 04:58:07;;;;;;;5.27;3.67;;;;;;;3.53;100.00;94778.47;5070709;28;20265;-55
2023/01/13 05:00:33;;;;;;;5.33;3.83;;;;;;;3.48;100.00;94788.75;5052875;28;20213;-56
2023/01/13 05:02:58;;;;;;;9.70;5.77;;;;;;;4.43;100.00;94764.81;5070674;28;20202;-53
2023/01/13 05:05:26;;;;;;;10.13;6.33;;;;;;;6.25;100.00;94772.63;5070636;28;20229;-56
2023/01/13 05:07:52;;;;;;;5.77;4.37;;;;;;;5.87;100.00;94783.50;5070401;28;20199;-54
2023/01/13 05:10:17;;;;;;;5.80;3.90;;;;;;;5.17;100.00;94838.41;5070591;28;20670;-56
2023/01/13 05:18:11;;;;;;;5.90;4.17;;;;;;;4.33;100.00;94801.50;5074434;28;20194;-57
2023/01/13 05:20:36;;;;;;;3.77;3.33;;;;;;;4.21;100.00;94795.47;5074002;28;20587;-58
2023/01/13 05:25:47;;;;;;;5.13;4.33;;;;;;;3.90;100.00;94788.09;5074217;28;20218;-55
2023/01/13 05:28:32;;;;;;;5.50;4.03;;;;;;;3.84;100.00;94789.22;5074186;28;20195;-56
2023/01/13 05:30:58;;;;;;;6.07;4.53;;;;;;;3.93;100.00;94796.25;5073871;28;20210;-57
2023/01/13 05:33:23;;;;;;;5.30;4.27;;;;;;;3.92;100.00;94798.84;5073880;28;20191;-57
2023/01/13 05:35:49;;;;;;;7.10;4.77;;;;;;;3.90;100.00;94798.13;5073614;28;20685;-54
2023/01/13 05:38:15;;;;;;;6.43;4.40;;;;;;;3.82;100.00;94782.66;5073878;28;20319;-55
2023/01/13 05:43:26;;;;;;;5.40;3.70;;;;;;;3.91;100.00;94804.78;5034178;28;20681;-56
2023/01/13 05:45:59;;;;;;;6.07;4.23;;;;;;;3.89;100.00;94801.53;5047816;28;20225;-55
2023/01/13 05:48:28;;;;;;;6.53;4.80;;;;;;;4.00;100.00;94809.28;5053542;28;20199;-53
2023/01/13 05:50:54;;;;;;;7.27;4.80;;;;;;;3.98;100.00;94796.78;5053952;28;20269;-53
2023/01/13 05:53:20;;;;;;;6.97;5.37;;;;;;;4.13;100.00;94812.72;5053451;28;20215;-57
2023/01/13 05:55:46;;;;;;;7.77;5.70;;;;;;;3.83;100.00;94795.16;5053373;28;20300;-56
2023/01/13 05:58:13;;;;;;;10.50;6.03;;;;;;;3.97;100.00;94814.47;5051458;28;20297;-55
2023/01/13 06:00:40;;;;;;;9.27;6.07;;;;;;;3.71;100.00;94770.72;5052934;28;20212;-54
2023/01/13 06:03:05;;;;;;;8.77;5.47;;;;;;;3.90;100.00;94816.53;5053496;28;20208;-55
2023/01/13 06:05:31;;;;;;;11.43;5.63;;;;;;;3.92;100.00;94814.72;5053198;28;20789;-56
2023/01/13 06:07:58;;;;;;;8.53;5.53;;;;;;;4.04;100.00;94810.75;5053105;28;20195;-55
2023/01/13 06:10:25;;;;;;;10.00;6.83;;;;;;;3.97;100.00;94812.78;5053388;28;20678;-55
2023/01/13 06:12:50;;;;;;;11.60;6.67;;;;;;;3.74;100.00;94804.88;5052993;28;20655;-56
2023/01/13 06:15:17;;;;;;;8.90;6.53;;;;;;;3.73;100.00;94803.28;5053054;28;20224;-56
2023/01/13 06:17:42;;;;;;;9.53;6.33;;;;;;;3.62;100.00;94811.41;5053116;28;20191;-56
2023/01/13 06:20:09;;;;;;;9.70;6.73;;;;;;;3.65;100.00;94816.28;5053099;28;20248;-55
2023/01/13 06:22:38;;;;;;;8.10;5.70;;;;;;;3.76;100.00;94820.69;5052433;28;20194;-59
2023/01/13 06:25:12;;;;;;;8.93;6.43;;;;;;;3.59;100.00;94811.59;5053140;28;20214;-55
2023/01/13 06:27:37;;;;;;;11.93;7.17;;;;;;;3.67;100.00;94823.75;5052522;28;20535;-57
2023/01/13 06:30:03;;;;;;;10.47;7.37;;;;;;;3.59;100.00;94811.59;5052513;28;20266;-56
2023/01/13 06:32:37;;;;;;;8.67;6.10;;;;;;;3.70;100.00;94826.06;5052774;28;20187;-57
2023/01/13 06:35:08;;;;;;;9.40;6.87;;;;;;;3.69;100.00;94819.44;5052424;28;20222;-55
2023/01/13 06:37:34;;;;;;;11.97;6.77;;;;;;;3.57;100.00;94817.59;5052827;28;20191;-54
2023/01/13 06:40:02;;;;;;;14.63;7.97;;;;;;;3.58;100.00;94809.16;5051102;28;20244;-55
2023/01/13 06:45:17;;;;;;;14.33;7.73;;;;;;;3.59;100.00;94805.75;5051804;28;20231;-55
2023/01/13 06:47:43;;;;;;;11.93;8.13;;;;;;;3.54;100.00;94816.06;5051585;28;20269;-57
2023/01/13 06:50:09;;;;;;;12.57;7.43;;;;;;;3.65;100.00;94817.97;5051833;28;20329;-58
2023/01/13 06:52:35;;;;;;;11.97;7.07;;;;;;;3.65;100.00;94817.97;5051983;28;20582;-56
2023/01/13 06:55:00;;;;;;;9.07;6.80;;;;;;;3.80;100.00;94830.50;5051947;28;20209;-54
2023/01/13 06:57:26;;;;;;;11.47;6.93;;;;;;;3.96;100.00;94835.50;5050510;28;20189;-56
2023/01/13 06:59:51;;;;;;;10.73;6.93;;;;;;;3.92;100.00;94829.03;5050418;28;20248;-57
2023/01/13 07:02:17;;;;;;;11.60;7.40;;;;;;;3.86;100.00;94816.78;5050419;28;20263;-57
2023/01/13 07:04:43;;;;;;;15.30;8.60;;;;;;;3.89;100.00;94834.22;5050419;28;20210;-56
2023/01/13 07:07:09;;;;;;;14.67;8.30;;;;;;;3.95;100.00;94828.84;5051453;28;20217;-57
2023/01/13 07:09:34;;;;;;;10.83;7.17;;;;;;;3.71;100.00;94807.59;5067649;28;20213;-56
2023/01/13 07:12:00;;;;;;;9.67;7.20;;;;;;;3.76;100.00;94824.03;5052320;28;20198;-58
2023/01/13 07:17:09;;;;;;;12.70;7.97;;;;;;;3.75;100.00;94819.91;5052250;28;20562;-57
2023/01/13 07:19:34;;;;;;;9.83;7.20;;;;;;;3.75;100.00;94829.97;5052213;28;20231;-57
2023/01/13 07:22:00;;;;;;;12.90;7.50;;;;;;;3.79;100.00;94816.34;5052188;28;20178;-57
2023/01/13 07:24:25;;;;;;;12.97;7.47;;;;;;;3.95;100.00;94832.19;5052044;28;20681;-54
2023/01/13 07:26:51;;;;;;;10.63;6.17;;;;;;;3.98;100.00;94836.22;5052014;28;20215;-55
2023/01/13 07:29:17;;;;;;;12.27;7.40;;;;;;;4.06;100.00;94826.56;5051913;28;20300;-57
2023/01/13 07:31:42;;;;;;;10.57;6.83;;;;;;;3.96;100.00;94833.00;5033893;28;20203;-55
2023/01/13 07:34:08;;;;;;;13.60;6.90;;;;;;;4.33;100.00;94834.19;5051953;28;20227;-55
2023/01/13 07:36:34;;;;;;;11.73;7.33;;;;;;;4.37;100.00;94858.28;5052009;28;20609;-56
2023/01/13 07:38:59;;;;;;;9.20;6.33;;;;;;;4.41;100.00;94857.22;5050795;28;20233;-56
2023/01/13 07:44:09;;;;;;;13.30;6.67;;;;;;;4.37;100.00;94864.13;5051964;28;20222;-57
2023/01/13 07:46:35;;;;;;;11.27;7.27;;;;;;;4.11;100.00;94819.53;5051907;28;20568;-54
2023/01/13 07:49:01;;;;;;;11.30;6.90;;;;;;;4.36;100.00;94834.03;5051806;28;20674;-57
2023/01/13 07:51:26;;;;;;;9.87;6.57;;;;;;;4.60;100.00;94868.66;5051795;28;20264;-57
2023/01/13 07:53:52;;;;;;;13.67;7.30;;;;;;;4.52;100.00;94862.47;5051759;28;20279;-56
2023/01/13 07:56:18;;;;;;;10.60;6.83;;;;;;;4.39;100.00;94861.53;5051611;28;20244;-55
2023/01/13 07:58:49;;;;;;;11.23;6.37;;;;;;;4.31;100.00;94838.50;5051411;28;20259;-56
2023/01/13 08:01:15;;;;;;;10.63;7.03;;;;;;;4.60;100.00;94862.81;5051465;28;20644;-53
2023/01/13 08:03:41;;;;;;;10.80;7.40;;;;;;;4.55;100.00;94859.75;5051688;28;20187;-58
2023/01/13 08:06:08;;;;;;;9.63;6.43;;;;;;;4.42;100.00;94864.69;5051551;28;20704;-54
2023/01/13 08:08:34;;;;;;;10.33;5.77;;;;;;;4.33;100.00;94860.19;5050102;28;20643;-58
2023/01/13 08:11:04;;;;;;;10.00;6.30;;;;;;;4.33;100.00;94865.22;5050909;28;20214;-55
2023/01/13 08:13:30;;;;;;;9.33;6.60;;;;;;;4.61;100.00;94880.34;5051340;28;20222;-55
2023/01/13 08:16:14;;;;;;;11.43;6.90;;;;;;;4.78;100.00;94875.16;5051376;28;20237;-55
2023/01/13 08:18:40;;;;;;;13.37;6.63;;;;;;;4.65;100.00;94876.75;5033190;28;20609;-53
2023/01/13 08:21:09;;;;;;;11.30;6.40;;;;;;;4.82;100.00;94899.25;5050134;28;20214;-56
2023/01/13 08:23:35;;;;;;;13.10;5.10;;;;;;;4.91;100.00;94902.91;5049489;28;20276;-55
2023/01/13 08:26:03;;;;;;;12.27;5.70;;;;;;;4.40;100.00;94828.75;5050036;28;20629;-54
2023/01/13 08:28:28;;;;;;;6.57;4.73;;;;;;;4.61;100.00;94897.97;5049589;28;20669;-57
2023/01/13 08:30:57;;;;;;;7.70;5.03;;;;;;;4.74;100.00;94875.41;5049947;28;20216;-55
2023/01/13 08:33:22;;;;;;;9.00;6.10;;;;;;;5.08;100.00;94900.22;5051138;28;20185;-60
2023/01/13 08:35:51;;;;;;;11.60;6.47;;;;;;;5.04;100.00;94881.16;5051352;28;20704;-60
2023/01/13 08:38:17;;;;;;;9.73;6.07;;;;;;;5.66;100.00;94953.78;5050773;28;20192;-56
2023/01/13 08:40:42;;;;;;;8.90;6.20;;;;;;;5.99;100.00;94935.81;5071593;22;20236;-56
2023/01/13 08:43:08;;;;;;;9.33;6.73;;;;;;;6.34;100.00;94992.44;5070983;28;20561;-57
2023/01/13 08:45:34;;;;;;;10.13;6.23;;;;;;;6.19;100.00;94978.28;5070918;28;20215;-55
2023/01/13 08:48:00;;;;;;;7.17;5.40;;;;;;;6.00;100.00;94959.34;5070765;28;20267;-55
2023/01/13 08:50:25;;;;;;;15.40;7.00;;;;;;;6.40;100.00;94984.47;5070580;28;20234;-55
2023/01/13 08:52:51;;;;;;;11.20;4.70;;;;;;;6.29;100.00;95009.59;5070779;28;20590;-57
2023/01/13 08:55:17;;;;;;;7.77;4.63;;;;;;;6.43;100.00;94984.31;5070867;28;20227;-56
2023/01/13 08:57:43;;;;;;;9.30;5.47;;;;;;;6.98;100.00;95006.84;5071011;28;20230;-56
2023/01/13 09:00:10;;;;;;;12.13;6.40;;;;;;;7.26;100.00;95051.34;5069478;28;20271;-56
2023/01/13 09:02:42;;;;;;;15.00;7.40;;;;;;;7.41;100.00;95065.53;5069922;28;20188;-58
2023/01/13 09:05:09;;;;;;;11.20;6.10;;;;;;;7.45;100.00;95064.41;5070534;28;20212;-57
2023/01/13 09:07:37;;;;;;;7.60;5.83;;;;;;;7.94;100.00;95089.78;5070285;28;20263;-57
2023/01/13 09:10:04;;;;;;;11.17;5.77;;;;;;;8.40;100.00;95108.56;5070318;28;20204;-55
2023/01/13 09:15:17;;;;;;;9.97;5.27;;;;;;;7.50;100.00;95050.53;5071231;28;20616;-54
2023/01/13 09:17:42;;;;;;;9.40;5.20;;;;;;;7.30;100.00;95022.41;5070438;28;20187;-58
2023/01/13 09:20:08;;;;;;;8.37;5.77;;;;;;;7.20;100.00;94980.97;5070748;28;20221;-58
2023/01/13 09:22:36;;;;;;;7.97;5.23;;;;;;;6.96;100.00;94937.09;5069649;28;20192;-55
2023/01/13 09:25:02;;;;;;;8.77;5.77;;;;;;;7.24;100.00;94775.06;5069780;28;20215;-58
2023/01/13 09:27:28;;;;;;;7.77;5.30;;;;;;;7.15;100.00;94968.63;5068187;28;20177;-55
2023/01/13 09:29:53;;;;;;;9.03;5.13;;;;;;;7.15;100.00;94958.50;5067933;28;20923;-57
2023/01/13 09:32:19;;;;;;;11.07;5.93;;;;;;;7.36;100.00;94928.44;5068204;28;20188;-57
2023/01/13 09:35:00;;;;;;;7.20;4.37;;;;;;;7.26;100.00;94996.53;5068035;28;20585;-57
2023/01/13 09:37:30;;;;;;;8.50;3.70;;;;;;;6.83;100.00;94977.50;5068038;28;20188;-55
2023/01/13 09:39:56;;;;;;;6.33;4.23;;;;;;;6.95;100.00;94966.59;5067899;28;20205;-55
2023/01/13 09:45:45;;;;;;;4.70;3.70;;;;;;;6.94;100.00;94937.19;5069443;28;20270;-58
2023/01/13 09:48:10;;;;;;;5.87;3.07;;;;;;;6.79;100.00;94938.19;5069981;28;20235;-55
2023/01/13 09:50:35;;;;;;;5.93;3.07;;;;;;;6.99;100.00;94936.91;5070183;28;20201;-55
2023/01/13 09:53:01;;;;;;;6.00;4.13;;;;;;;7.00;100.00;94958.72;5070435;28;20177;-57
2023/01/13 09:55:35;;;;;;;6.97;4.20;;;;;;;7.22;100.00;94969.03;5070000;28;20240;-55
2023/01/13 09:58:10;;;;;;;4.27;3.83;;;;;;;7.17;100.00;94964.25;5070148;28;20550;-56
2023/01/13 10:00:45;;;;;;;6.33;4.20;;;;;;;7.19;100.00;94954.06;5070359;28;20243;-56
2023/01/13 10:03:14;;;;;;;9.43;4.20;;;;;;;7.14;100.00;94966.19;5072263;28;20204;-57
2023/01/13 10:06:03;;;;;;;9.93;4.50;;;;;;;7.22;100.00;94931.91;5073496;28;20209;-55
2023/01/13 10:08:33;;;;;;;7.10;4.33;;;;;;;7.41;100.00;94944.13;5073477;28;20213;-54
2023/01/13 10:14:00;;;;;;;5.40;3.70;;;;;;;7.15;100.00;94977.94;5049339;28;20382;-63
2023/01/13 10:16:44;;;;;;;9.07;4.33;;;;;;;6.79;100.00;94908.69;5072984;28;20197;-56
2023/01/13 10:19:25;;;;;;;6.13;3.80;;;;;;;6.72;100.00;94914.25;5073042;28;20243;-53
2023/01/13 10:22:00;;;;;;;5.63;3.70;;;;;;;6.98;100.00;94935.25;5073126;28;20185;-58
2023/01/13 10:24:31;;;;;;;10.03;4.20;;;;;;;6.74;100.00;94908.19;5073092;28;20690;-62
2023/01/13 10:27:09;;;;;;;5.10;3.30;;;;;;;6.90;100.00;94882.72;5073065;28;20287;-58
2023/01/13 10:29:35;;;;;;;6.10;3.80;;;;;;;7.05;100.00;94894.31;5073155;28;20212;-59
2023/01/13 10:32:00;;;;;;;6.60;3.57;;;;;;;7.29;100.00;94915.41;5072930;28;20185;-54
2023/01/13 10:34:27;;;;;;;4.23;2.47;;;;;;;7.30;100.00;94944.03;5072667;28;20223;-57
2023/01/13 10:37:06;;;;;;;4.97;3.00;;;;;;;7.28;100.00;94938.28;5072761;28;20216;-57
2023/01/13 10:39:41;;;;;;;4.73;3.20;;;;;;;7.09;100.00;94920.22;5072805;28;20212;-58
2023/01/13 10:42:16;;;;;;;5.53;3.70;;;;;;;6.86;100.00;94885.53;5072574;28;20275;-58
2023/01/13 10:44:51;;;;;;;4.77;3.07;;;;;;;6.96;100.00;94900.00;5072547;28;20212;-58
2023/01/13 10:47:21;;;;;;;17.60;4.23;;;;;;;7.04;100.00;94934.84;5072641;28;20196;-57
2023/01/13 10:50:01;;;;;;;4.57;2.87;;;;;;;7.03;100.00;94882.72;5072861;28;20215;-55
2023/01/13 10:52:29;;;;;;;3.90;2.87;;;;;;;7.11;100.00;94878.72;5072839;28;20181;-56
2023/01/13 10:54:54;;;;;;;3.00;2.33;;;;;;;7.37;100.00;94910.63;5072368;28;20647;-55
2023/01/13 10:57:26;;;;;;;3.37;2.40;;;;;;;7.46;100.00;94919.31;5072671;28;20181;-56
2023/01/13 10:59:52;;;;;;;4.00;2.90;;;;;;;7.41;100.00;94939.88;5072375;28;20699;-54
2023/01/13 11:02:26;;;;;;;3.47;2.60;;;;;;;7.52;100.00;94937.44;5072445;28;20188;-56
2023/01/13 11:04:52;;;;;;;4.80;3.70;;;;;;;8.74;100.00;94752.19;5072497;28;20241;-54
2023/01/13 11:07:22;;;;;;;7.20;3.80;;;;;;;9.71;100.00;94756.34;5072440;28;20181;-58
2023/01/13 11:10:01;;;;;;;3.40;2.80;;;;;;;9.24;100.00;94990.06;5072601;28;20213;-54
2023/01/13 11:12:33;;;;;;;2.97;1.90;;;;;;;9.04;100.00;95008.50;5072372;28;20566;-55
2023/01/13 11:15:03;;;;;;;4.03;2.60;;;;;;;8.97;100.00;95002.22;5071949;28;20232;-55
2023/01/13 11:17:39;;;;;;;3.40;2.60;;;;;;;8.82;100.00;95004.19;5072235;28;20196;-57
2023/01/13 11:20:10;;;;;;;3.23;2.47;;;;;;;8.46;100.00;94969.59;5072157;28;20220;-55
2023/01/13 11:22:58;;;;;;;3.27;2.97;;;;;;;8.54;100.00;95009.59;5072166;28;20199;-56
2023/01/13 11:25:32;;;;;;;5.10;2.50;;;;;;;8.41;100.00;94993.63;5071959;28;20216;-59
2023/01/13 11:28:15;;;;;;;6.60;3.07;;;;;;;8.22;100.00;94943.44;5071868;28;20193;-55
2023/01/13 11:30:48;;;;;;;3.10;2.57;;;;;;;8.13;100.00;94930.63;5072586;28;20201;-60
2023/01/13 11:33:14;;;;;;;9.53;3.10;;;;;;;8.02;100.00;94940.72;5072025;28;20189;-55
2023/01/13 11:35:44;;;;;;;3.77;2.77;;;;;;;8.00;100.00;94918.03;5071896;28;20296;-58
2023/01/13 11:38:27;;;;;;;4.57;2.20;;;;;;;8.13;100.00;94950.88;5072187;28;20192;-55
2023/01/13 11:40:56;;;;;;;7.80;2.50;;;;;;;8.01;100.00;94955.09;5071890;28;20299;-59
2023/01/13 11:43:53;;;;;;;3.77;2.30;;;;;;;7.67;100.00;94887.50;5071859;28;20654;-55
2023/01/13 11:46:24;;;;;;;2.30;1.90;;;;;;;7.82;100.00;94901.59;5071689;28;20209;-56
2023/01/13 11:48:50;;;;;;;4.47;2.60;;;;;;;7.84;100.00;94888.88;5071793;28;20580;-54
2023/01/13 11:51:31;;;;;;;6.00;2.63;;;;;;;7.88;100.00;94858.16;5071704;28;20208;-58
2023/01/13 11:54:41;;;;;;;3.47;2.90;;;;;;;7.55;100.00;94888.34;5071794;28;20211;-58
2023/01/13 11:57:43;;;;;;;7.80;3.33;;;;;;;7.44;100.00;94861.28;5052168;28;20754;-55
2023/01/13 12:00:30;;;;;;;5.00;3.30;;;;;;;7.09;100.00;94841.84;5071740;28;20697;-57
2023/01/13 12:03:16;;;;;;;3.97;3.30;;;;;;;6.73;100.00;94787.84;5071708;28;20183;-54
2023/01/13 12:05:58;;;;;;;5.83;3.70;;;;;;;7.17;100.00;94805.00;5071460;28;20741;-60
2023/01/13 12:08:45;;;;;;;4.57;3.30;;;;;;;7.21;100.00;94806.41;5071529;28;20181;-54
2023/01/13 12:11:32;;;;;;;6.57;3.13;;;;;;;7.43;100.00;94811.59;5071747;28;20212;-59
2023/01/13 12:14:05;;;;;;;3.57;3.00;;;;;;;7.53;100.00;94834.53;5071348;28;20192;-54
2023/01/13 12:16:31;;;;;;;5.47;2.80;;;;;;;7.74;100.00;94855.00;5071613;28;20177;-55
2023/01/13 12:19:29;;;;;;;7.80;2.83;;;;;;;7.50;100.00;94852.44;5069724;28;20215;-55
2023/01/13 12:22:30;;;;;;;3.70;2.67;;;;;;;7.54;100.00;94849.59;5071248;28;20195;-55
2023/01/13 12:25:27;;;;;;;4.57;2.70;;;;;;;7.34;100.00;94854.41;5047400;28;20216;-55
2023/01/13 12:27:57;;;;;;;5.37;2.60;;;;;;;7.32;100.00;94853.72;5071547;28;20180;-55